Observations

82.6 °F / 28.1 °C
E at 16 MPH
86%
78.1°F / 25.6 °C
29.77" (1008 mb)
10 mile(s)
partly cloudy
2021.03.02 0420 UTC

Observations

Surface


Raw METARs

2021/03/02 04:20
PKWA 020420Z AUTO 10014KT 10SM SCT018 SCT047 SCT070 28/26 A2977 RMK AO2 T02810256

Translated METAR

Kwajalein, Bucholz AAF, Kwajalein KMR ATOL Airport, Marshall Islands (PKWA) 08-43N 167-44E 2M
Mar 01, 2021 - 11:20 PM EST / 2021.03.02 0420 UTC
Wind: from the E (100 degrees) at 16 MPH (14 KT):0
Visibility: 10 mile(s):0
Sky conditions: partly cloudy
Temperature: 82.6 F (28.1 C)
Dew Point: 78.1 F (25.6 C)
Relative Humidity: 86%
Pressure (altimeter): 29.77 in. Hg (1008 hPa)
ob: PKWA 020420Z AUTO 10014KT 10SM SCT018 SCT047 SCT070 28/26 A2977 RMK AO2 T02810256
cycle: 4



Upper Air


Latest Skew-T

Skew T Diagram

Latest Data File